• Join FlightAware (Why Join?)
  • Login
  • US Flag 
04:50AM EDT


 

Airport Tracker/Info


-or-


 

Live Flight TrackerFlight Track Log ✈ AMX682 ✈ 02-May-2013 ✈ MMMX / MEX - KORD

Flight Track Log - Related Links

Times and Time Zones

All times are in EDT time to prevent confusion due to time zone crossing. See the AMX682 flight status page for this flight to view local times or setup timezone preferences in your user account.

Time Position Orientation Groundspeed Altitude Reporting Facility
EDT Latitude Longitude Course Direction KTS MPH feet Rate Location/Type
09:01PM 24.1050 -97.4430 12° North 418 481 39,000  Level FlightAware
09:02PM 24.2080 -97.4200 12° North 420 483 39,000  Level FlightAware
09:02PM 24.2720 -97.4050 12° North 420 483 39,000  Level FlightAware
09:03PM 24.3660 -97.3820 13° North 419 482 39,000  Level FlightAware
09:04PM 24.4280 -97.3670 12° North 419 482 39,000  Level FlightAware
09:05PM 24.5340 -97.3430 12° North 419 482 39,000  Level FlightAware
09:05PM 24.5970 -97.3280 12° North 420 483 39,000  Level FlightAware
09:06PM 24.6870 -97.3060 13° North 420 483 39,000  Level FlightAware
09:07PM 24.7700 -97.2870 12° North 420 483 39,000  Level FlightAware
09:07PM 24.8500 -97.2680 12° North 423 487 39,000  Level FlightAware
09:08PM 24.9360 -97.2470 12° North 424 488 39,000  Level FlightAware
09:09PM 25.0120 -97.2290 12° North 430 495 39,000  Level FlightAware
09:09PM 25.1000 -97.2080 12° North 437 503 39,000  Level FlightAware
09:10PM 25.1800 -97.1890 12° North 439 505 39,000  Level FlightAware
09:11PM 25.2590 -97.1700 12° North 443 510 39,000  Level FlightAware
09:12PM 25.3500 -97.1480 12° North 444 511 39,000  Level FlightAware
09:12PM 25.4320 -97.1290 12° North 444 511 39,000  Level FlightAware
09:13PM 25.5210 -97.1080 12° North 442 509 39,000  Level FlightAware
09:14PM 25.6040 -97.0880 12° North 438 504 39,000  Level FlightAware
09:14PM 25.6800 -97.0720 11° North 437 503 39,000  Level FlightAware
09:15PM 25.7730 -97.0520 11° North 438 504 39,000  Level FlightAware
09:16PM 25.8510 -97.0340 12° North 438 504 39,000  Level FlightAware
09:16PM 25.9400 -97.0140 11° North 438 504 39,000  Level FlightAware
09:17PM 26.0190 -96.9960 12° North 439 505 39,000  Level FlightAware
09:18PM 26.1000 -96.9760 13° North 441 507 39,000  Level FlightAware
09:19PM 26.1880 -96.9430 19° North 449 517 39,000  Level FlightAware
09:19PM 26.2660 -96.9090 21° North 448 516 39,000  Level FlightAware
09:20PM 26.3510 -96.8730 21° North 447 514 39,000  Level FlightAware
09:20PM 26.3712 -96.8641 22° Northeast 448 516 39,000  Level FlightAware ADS-B
09:21PM 26.4280 -96.8400 21° North 446 513 39,000  Level FlightAware
09:21PM 26.4486 -96.8313 21° North 447 514 39,000  Level FlightAware ADS-B
09:22PM 26.5754 -96.7770 21° North 447 514 39,000  Level FlightAware ADS-B
09:23PM 26.6597 -96.7410 21° North 449 517 39,000  Level FlightAware ADS-B
09:24PM 26.8142 -96.6745 21° North 450 518 39,000  Level FlightAware ADS-B
09:25PM 26.9573 -96.6127 21° North 451 519 39,000  Level FlightAware ADS-B
09:26PM 27.0221 -96.5846 21° North 454 522 39,000  Level FlightAware ADS-B
09:26PM 27.0854 -96.5572 21° North 454 522 39,000  Level FlightAware ADS-B
09:27PM 27.1753 -96.5183 21° North 456 525 39,000  Level FlightAware ADS-B
09:28PM 27.2508 -96.4856 21° North 457 526 39,000  Level FlightAware ADS-B
09:28PM 27.3149 -96.4578 21° North 458 527 39,000  Level FlightAware ADS-B
09:29PM 27.4258 -96.4095 21° North 459 528 39,000  Level FlightAware ADS-B
09:30PM 27.4894 -96.3817 21° North 461 531 39,000  Level FlightAware ADS-B
09:30PM 27.5628 -96.3496 21° North 461 531 39,000  Level FlightAware ADS-B
09:31PM 27.6332 -96.3187 21° North 461 531 39,000  Level FlightAware ADS-B
09:31PM 27.6970 -96.2908 21° North 460 529 39,000  Level FlightAware ADS-B
09:32PM 27.7618 -96.2625 21° North 459 528 39,000  Level FlightAware ADS-B
09:32PM 27.8221 -96.2360 21° North 460 529 39,000  Level FlightAware ADS-B
09:33PM 27.8850 -96.2083 21° North 458 527 39,000  Level FlightAware ADS-B
09:33PM 27.9461 -96.1814 21° North 457 526 39,000  Level FlightAware ADS-B
09:34PM 28.0163 -96.1506 21° North 456 525 39,000  Level FlightAware ADS-B
09:35PM 28.0779 -96.1234 21° North 457 526 39,000  Level FlightAware ADS-B
09:35PM 28.1369 -96.0973 21° North 455 524 39,000  Level FlightAware ADS-B
09:36PM 28.1959 -96.0712 21° North 454 522 39,000  Level FlightAware ADS-B
09:36PM 28.2562 -96.0445 21° North 452 520 39,000  Level FlightAware ADS-B
09:37PM 28.3155 -96.0182 21° North 452 520 39,000  Level FlightAware ADS-B
09:37PM 28.3779 -95.9906 21° North 451 519 39,000  Level FlightAware ADS-B
09:38PM 28.4393 -95.9634 21° North 451 519 39,000  Level FlightAware ADS-B
09:38PM 28.4986 -95.9369 21° North 451 519 39,000  Level FlightAware ADS-B
09:39PM 28.5578 -95.9106 21° North 451 519 39,000  Level FlightAware ADS-B
09:39PM 28.6179 -95.8838 21° North 451 519 39,000  Level FlightAware ADS-B
09:40PM 28.6789 -95.8565 21° North 452 520 39,000  Level FlightAware ADS-B
09:40PM 28.7387 -95.8298 21° North 452 520 39,000  Level FlightAware ADS-B
09:41PM 28.7979 -95.8033 21° North 452 520 39,000  Level FlightAware ADS-B
09:41PM 28.8593 -95.7757 21° North 453 521 39,000  Level FlightAware ADS-B
09:42PM 28.9221 -95.7475 21° North 453 521 39,000  Level FlightAware ADS-B
09:42PM 28.9825 -95.7204 21° North 453 521 39,000  Level FlightAware ADS-B
09:43PM 29.0503 -95.6898 22° Northeast 455 524 39,000  Level FlightAware ADS-B
09:43PM 29.1197 -95.6583 22° Northeast 454 522 39,000  Level FlightAware ADS-B
09:44PM 29.1791 -95.6316 21° North 454 522 39,000  Level FlightAware ADS-B
09:45PM 29.2504 -95.5994 22° Northeast 453 521 39,000  Level FlightAware ADS-B
09:45PM 29.3330 -95.5621 21° North 453 521 39,000  Level FlightAware ADS-B
09:46PM 29.4570 -95.5060 21° North 447 514 39,000  Level FlightAware
09:47PM 29.5330 -95.4720 21° North 446 513 39,000  Level FlightAware
09:48PM 29.6100 -95.4360 22° Northeast 446 513 39,000  Level FlightAware
09:48PM 29.6668 -95.4105 21° North 448 516 39,000  Level FlightAware ADS-B
09:49PM 29.7248 -95.3841 22° Northeast 451 519 39,000  Level FlightAware ADS-B
09:49PM 29.7836 -95.3572 22° Northeast 453 521 39,000  Level FlightAware ADS-B
09:50PM 29.8428 -95.3300 22° Northeast 453 521 39,000  Level FlightAware ADS-B
09:50PM 29.9041 -95.3020 22° Northeast 453 521 39,000  Level FlightAware ADS-B
09:51PM 29.9630 -95.2749 22° Northeast 455 524 39,000  Level FlightAware ADS-B
09:51PM 30.0235 -95.2472 22° Northeast 456 525 39,000  Level FlightAware ADS-B
09:52PM 30.0831 -95.2200 22° Northeast 458 527 39,000  Level FlightAware ADS-B
09:52PM 30.1434 -95.1920 22° Northeast 458 527 39,000  Level FlightAware ADS-B
09:53PM 30.2032 -95.1644 22° Northeast 459 528 39,000  Level FlightAware ADS-B
09:53PM 30.2648 -95.1358 22° Northeast 460 529 39,000  Level FlightAware ADS-B
09:54PM 30.3272 -95.1070 22° Northeast 461 531 39,000  Level FlightAware ADS-B
09:54PM 30.3913 -95.0772 22° Northeast 463 533 39,000  Level FlightAware ADS-B
09:55PM 30.4541 -95.0482 22° Northeast 463 533 39,000  Level FlightAware ADS-B
09:55PM 30.5192 -95.0181 22° Northeast 463 533 39,000  Level FlightAware ADS-B
09:56PM 30.5855 -94.9871 22° Northeast 464 534 39,000  Level FlightAware ADS-B
09:56PM 30.6465 -94.9588 22° Northeast 465 535 39,000  Level FlightAware ADS-B
09:57PM 30.7067 -94.9307 22° Northeast 465 535 39,000  Level FlightAware ADS-B
09:57PM 30.7671 -94.9025 22° Northeast 465 535 39,000  Level FlightAware ADS-B
09:58PM 30.8277 -94.8742 22° Northeast 465 535 39,000  Level FlightAware ADS-B
09:58PM 30.8887 -94.8456 22° Northeast 464 534 39,000  Level FlightAware ADS-B
09:59PM 30.9486 -94.8174 22° Northeast 464 534 39,000  Level FlightAware ADS-B
09:59PM 31.0090 -94.7891 22° Northeast 464 534 39,000  Level FlightAware ADS-B
10:00PM 31.0684 -94.7611 22° Northeast 464 534 39,000  Level FlightAware ADS-B
10:01PM 31.1290 -94.7325 22° Northeast 464 534 39,000  Level FlightAware ADS-B
10:01PM 31.1600 -94.7167 24° Northeast 467 537 39,000  Level FlightAware ADS-B
10:01PM 31.2311 -94.6696 30° Northeast 470 541 39,000  Level FlightAware ADS-B
10:02PM 31.2904 -94.6288 30° Northeast 470 541 39,000  Level FlightAware ADS-B
10:02PM 31.3450 -94.5910 31° Northeast 470 541 39,000  Level FlightAware
10:03PM 31.3779 -94.5683 30° Northeast 470 541 39,000  Level FlightAware ADS-B
10:04PM 31.4711 -94.5035 31° Northeast 471 542 39,000  Level FlightAware ADS-B
10:05PM 31.5958 -94.4170 31° Northeast 471 542 39,000  Level FlightAware ADS-B
10:05PM 31.6553 -94.3756 31° Northeast 470 541 39,000  Level FlightAware ADS-B
10:06PM 31.7116 -94.3365 31° Northeast 471 542 39,000  Level FlightAware ADS-B
10:06PM 31.7828 -94.2864 31° Northeast 471 542 39,000  Level FlightAware ADS-B
10:07PM 31.8365 -94.2502 30° Northeast 467 537 39,000  Level FlightAware ADS-B
10:07PM 31.8657 -94.2352 24° Northeast 465 535 39,000  Level FlightAware ADS-B
10:08PM 31.9265 -94.2086 20° North 464 534 39,000  Level FlightAware ADS-B
10:08PM 31.9904 -94.1807 20° North 463 533 39,000  Level FlightAware ADS-B
10:09PM 32.0615 -94.1494 20° North 462 532 39,000  Level FlightAware ADS-B
10:09PM 32.1237 -94.1221 20° North 462 532 39,000  Level FlightAware ADS-B
10:10PM 32.2029 -94.0874 20° North 462 532 39,000  Level FlightAware ADS-B
10:11PM 32.3301 -94.0310 21° North 463 533 39,000  Level FlightAware ADS-B
10:12PM 32.3950 -94.0030 20° North 462 532 39,000  Level FlightAware
10:12PM 32.4630 -93.9740 20° North 462 532 39,000  Level FlightAware
10:13PM 32.5310 -93.9440 20° North 462 532 39,000  Level FlightAware
10:14PM 32.5990 -93.9150 20° North 462 532 39,000  Level FlightAware
10:14PM 32.7540 -93.8430 21° North 468 539 39,000  Level FlightAware
10:15PM 32.8635 -93.7932 21° North 467 537 39,000  Level FlightAware ADS-B
10:16PM 32.9260 -93.7660 20° North 465 535 39,000  Level FlightAware
10:17PM 33.0120 -93.7290 20° North 465 535 39,000  Level FlightAware
10:17PM 33.1040 -93.6850 22° Northeast 462 532 39,000  Level FlightAware
10:18PM 33.1750 -93.6540 20° North 461 531 39,000  Level FlightAware
10:19PM 33.3010 -93.5970 21° North 460 529 39,000  Level FlightAware
10:20PM 33.3690 -93.5680 20° North 460 529 39,000  Level FlightAware
10:20PM 33.4370 -93.5380 20° North 460 529 39,000  Level FlightAware
10:21PM 33.5050 -93.5080 20° North 460 529 39,000  Level FlightAware
10:22PM 33.6400 -93.4420 22° Northeast 466 536 39,000  Level FlightAware
10:22PM 33.7140 -93.4100 20° North 466 536 39,000  Level FlightAware
10:23PM 33.7830 -93.3800 20° North 466 536 39,000  Level FlightAware
10:24PM 33.8510 -93.3500 20° North 466 536 39,000  Level FlightAware
10:24PM 33.9200 -93.3190 20° North 466 536 39,000  Level FlightAware
10:25PM 34.0060 -93.2820 20° North 466 536 39,000  Level FlightAware
10:26PM 34.0750 -93.2510 20° North 466 536 39,000  Level FlightAware
10:27PM 34.1440 -93.2210 20° North 466 536 39,000  Level FlightAware
10:27PM 34.2130 -93.1910 20° North 466 536 39,000  Level FlightAware
10:28PM 34.2990 -93.1530 20° North 466 536 39,000  Level FlightAware
10:29PM 34.3680 -93.1220 20° North 466 536 39,000  Level FlightAware
10:29PM 34.4370 -93.0920 20° North 466 536 39,000  Level FlightAware
10:30PM 34.5060 -93.0620 20° North 466 536 39,000  Level FlightAware
10:31PM 34.5750 -93.0310 20° North 466 536 39,000  Level FlightAware
10:31PM 34.6440 -93.0010 20° North 466 536 39,000  Level FlightAware
10:32PM 34.9342 -92.8408 20° North 485 558 39,000  Level Kansas City Center
10:33PM 35.0653 -92.7775 22° Northeast 475 547 39,000  Level Memphis Center
10:34PM 35.1936 -92.7200 20° North 486 559 39,000  Level Memphis Center
10:35PM 35.3053 -92.6597 24° Northeast 481 554 39,000  Level Memphis Center
10:36PM 35.4336 -92.6019 20° North 476 548 39,000  Level Memphis Center
10:37PM 35.5556 -92.5442 21° North 476 548 39,000  Level Memphis Center
10:38PM 35.6839 -92.4836 21° North 476 548 39,000  Level Memphis Center
10:39PM 35.8100 -92.4228 21° North 476 548 39,000  Level Memphis Center
10:40PM 35.9361 -92.3644 21° North 476 548 39,000  Level Memphis Center
10:41PM 36.0600 -92.3006 23° Northeast 476 548 39,000  Level Memphis Center
10:42PM 36.1861 -92.2419 21° North 476 548 39,000  Level Memphis Center
10:43PM 36.3122 -92.1806 21° North 476 548 39,000  Level Memphis Center
10:46PM 36.5942 -92.0350 23° Northeast 482 555 39,000  Level Kansas City Center
10:47PM 36.7208 -91.9733 21° North 485 558 39,000  Level Kansas City Center
10:48PM 36.8472 -91.9108 22° Northeast 486 559 39,000  Level Kansas City Center
10:49PM 36.9736 -91.8481 22° Northeast 487 560 39,000  Level Kansas City Center
10:50PM 37.1256 -91.7733 21° North 487 560 39,000  Level Kansas City Center
10:51PM 37.2508 -91.7103 22° Northeast 486 559 39,000  Level Kansas City Center
10:52PM 37.3769 -91.6472 22° Northeast 487 560 39,000  Level Kansas City Center
10:53PM 37.5025 -91.5853 21° North 486 559 39,000  Level Kansas City Center
10:54PM 37.6278 -91.5211 22° Northeast 487 560 39,000  Level Kansas City Center
10:59PM 38.2880 -91.1830 22° Northeast 489 563 39,000  Level FlightAware
11:00PM 38.3850 -91.1330 22° Northeast 488 562 39,000  Level FlightAware
11:00PM 38.4730 -91.0870 22° Northeast 488 562 39,000  Level FlightAware
11:01PM 38.5640 -91.0400 22° Northeast 487 560 39,000 -360 Level FlightAware
11:02PM 38.6470 -90.9960 22° Northeast 487 560 38,500 -1,140 Descending FlightAware
11:02PM 38.7270 -90.9540 22° Northeast 492 566 37,500 -1,020 Descending FlightAware
11:03PM 38.8260 -90.9010 23° Northeast 494 568 37,000 -1,260 Descending FlightAware
11:04PM 38.9440 -90.8360 23° Northeast 500 575 35,400 -1,380 Descending FlightAware
11:05PM 39.0280 -90.7900 23° Northeast 496 571 35,000 -720 Descending FlightAware
11:05PM 39.1210 -90.7390 23° Northeast 493 567 34,400 -720 Descending FlightAware
11:06PM 39.2230 -90.6850 22° Northeast 492 566 33,900 -840 Descending FlightAware
11:07PM 39.3330 -90.6230 24° Northeast 490 564 33,000 -600 Descending FlightAware
11:08PM 39.4120 -90.5800 23° Northeast 490 564 33,000  Level FlightAware
11:08PM 39.4970 -90.5330 23° Northeast 488 562 33,000  Level FlightAware
11:09PM 39.5940 -90.4790 23° Northeast 489 563 33,000  Level FlightAware
11:10PM 39.6620 -90.4410 23° Northeast 489 563 33,000  Level FlightAware
11:10PM 39.7500 -90.3920 23° Northeast 487 560 33,000  Level FlightAware
11:11PM 39.8350 -90.3450 23° Northeast 487 560 33,000  Level FlightAware
11:12PM 39.9250 -90.2940 23° Northeast 482 555 33,000  Level FlightAware
11:13PM 40.0050 -90.2500 23° Northeast 475 547 33,000  Level FlightAware
11:13PM 40.0940 -90.1990 24° Northeast 475 547 33,000  Level FlightAware
11:14PM 40.1780 -90.1520 23° Northeast 474 545 33,000  Level FlightAware
11:15PM 40.2540 -90.1090 23° Northeast 476 548 33,000  Level FlightAware
11:15PM 40.3500 -90.0550 23° Northeast 475 547 33,000  Level FlightAware
11:16PM 40.4250 -90.0070 26° Northeast 476 548 33,000  Level FlightAware
11:17PM 40.5030 -89.9270 38° Northeast 475 547 33,000  Level FlightAware
11:17PM 40.5700 -89.8470 42° Northeast 474 545 33,000 -180 Level FlightAware
11:18PM 40.6310 -89.7750 42° Northeast 471 542 32,800 -1,560 Descending FlightAware
11:19PM 40.7060 -89.6850 42° Northeast 469 540 30,800 -2,400 Descending FlightAware
11:20PM 40.7680 -89.6110 42° Northeast 460 529 29,400 -2,280 Descending FlightAware
11:20PM 40.8420 -89.5240 42° Northeast 447 514 27,600 -2,220 Descending FlightAware
11:21PM 40.9000 -89.4540 42° Northeast 425 489 26,300 -1,980 Descending FlightAware
11:22PM 40.9610 -89.3800 42° Northeast 417 480 24,800 -2,100 Descending FlightAware
11:22PM 41.0200 -89.3080 43° Northeast 409 471 23,400 -2,100 Descending FlightAware
11:23PM 41.0760 -89.2400 42° Northeast 404 465 22,000 -2,100 Descending FlightAware
11:24PM 41.1350 -89.1690 42° Northeast 392 451 20,500 -1,920 Descending FlightAware
11:24PM 41.1890 -89.1050 42° Northeast 373 429 19,300 -1,920 Descending FlightAware
11:25PM 41.2460 -89.0340 43° Northeast 365 420 17,800 -1,980 Descending FlightAware
11:26PM 41.2960 -88.9730 42° Northeast 363 418 16,500 -1,980 Descending FlightAware
11:27PM 41.3500 -88.9070 43° Northeast 353 406 15,000 -1,980 Descending FlightAware
11:27PM 41.4000 -88.8470 42° Northeast 348 400 13,700 -1,800 Descending FlightAware
11:28PM 41.4430 -88.7940 43° Northeast 345 397 12,600 -1,440 Descending FlightAware
11:29PM 41.4970 -88.7270 43° Northeast 321 369 11,700 -960 Descending FlightAware
11:29PM 41.5290 -88.6670 55° Northeast 297 342 11,300 -720 Descending FlightAware
11:30PM 41.5540 -88.6020 63° Northeast 291 335 10,800 -360 Descending FlightAware
11:31PM 41.5820 -88.5320 62° Northeast 294 338 10,800 -300 Level FlightAware
11:31PM 41.6100 -88.4660 60° Northeast 296 341 10,400 -1,080 Descending FlightAware
11:32PM 41.6340 -88.4240 53° Northeast 297 342 9,600 -1,560 Descending FlightAware
11:32PM 41.6550 -88.3880 52° Northeast 293 337 9,000 -1,320 Descending FlightAware
11:33PM 41.6800 -88.3450 52° Northeast 285 328 8,400 -1,440 Descending FlightAware
11:33PM 41.7050 -88.3030 51° Northeast 288 331 7,600 -1,500 Descending FlightAware
11:34PM 41.7160 -88.2920 37° Northeast 291 335 7,400 -720 Descending FlightAware
11:34PM 41.7340 -88.2840 18° North 289 333 7,300 -600 Descending FlightAware
11:34PM 41.7560 -88.2850 358° North 283 326 7,100 -780 Descending FlightAware
11:34PM 41.7860 -88.2880 356° North 271 312 6,800 -360 Descending FlightAware
11:35PM 41.8220 -88.2910 356° North 240 276 6,800 -540 Level FlightAware
11:35PM 41.8540 -88.2940 356° North 227 261 6,300 -1,140 Descending FlightAware
11:36PM 41.8800 -88.2970 355° North 226 260 5,800 -1,200 Descending FlightAware
11:36PM 41.9110 -88.3000 356° North 224 258 5,200 -1,020 Descending FlightAware
11:37PM 41.9420 -88.3030 356° North 224 258 4,800 -480 Descending FlightAware
11:37PM 41.9680 -88.3060 355° North 224 258 4,800 -480 Level FlightAware
11:38PM 42.0030 -88.2880 21° North 198 228 4,300 -720 Descending FlightAware
11:38PM 42.0040 -88.2770 83° East 189 217 4,200 -720 Descending FlightAware
11:39PM 41.9940 -88.2390 109° East 177 204 3,800 -420 Descending FlightAware
11:39PM 41.9850 -88.2160 118° Southeast 175 201 3,800  Level FlightAware
11:40PM 41.9740 -88.1840 115° Southeast 173 199 3,800 -120 Level FlightAware
11:40PM 41.9680 -88.1570 107° East 164 189 3,700 -540 Descending FlightAware
11:41PM 41.9680 -88.1170 90° East 161 185 3,200 -780 Descending FlightAware
11:41PM 41.9680 -88.0930 90° East 160 184 2,900 -900 Descending FlightAware
11:42PM 41.9690 -88.0640 87° East 150 173 2,400 -900 Descending FlightAware
11:42PM 41.9690 -88.0370 90° East 131 151 2,000 -780 Descending FlightAware
11:43PM 41.9690 -88.0170 90° East 129 148 1,700 -720 Descending FlightAware
11:43PM 41.9690 -88.0010 90° East 127 146 1,500 -720 Descending FlightAware
11:44PM 41.9690 -87.9710 90° East 127 146 1,000 -660 Descending FlightAware
11:44PM 41.9690 -87.9510 90° East 130 150 800 -660 Descending FlightAware
11:45PM 41.9690 -87.9270 90° East 128 147 400 -480 Descending FlightAware
11:45PM 41.9690 -87.9070 90° East 128 147 400  Level FlightAware